createdAt,value
2023-01-23T00:02:21.309Z,98045.81
2023-01-23T00:04:49.631Z,98036.34
2023-01-23T00:07:17.386Z,98037.31
2023-01-23T00:09:45.151Z,98043.13
2023-01-23T00:12:12.836Z,98044.00
2023-01-23T00:14:40.512Z,98033.47
2023-01-23T00:17:08.258Z,98034.91
2023-01-23T00:19:35.981Z,98036.34
2023-01-23T00:22:03.746Z,98038.06
2023-01-23T00:24:31.419Z,98031.28
2023-01-23T00:26:59.176Z,98025.38
2023-01-23T00:29:26.918Z,98034.22
2023-01-23T00:31:54.732Z,98025.16
2023-01-23T00:34:23.273Z,98027.00
2023-01-23T00:36:51.056Z,98033.56
2023-01-23T00:39:20.539Z,98042.72
2023-01-23T00:41:48.820Z,98042.03
2023-01-23T00:44:16.621Z,98040.22
2023-01-23T00:46:44.616Z,98055.72
2023-01-23T00:49:12.410Z,98052.66
2023-01-23T00:51:40.174Z,98046.47
2023-01-23T00:54:07.902Z,98043.69
2023-01-23T00:56:35.750Z,98054.03
2023-01-23T00:59:03.914Z,98052.44
2023-01-23T01:01:32.699Z,98066.72
2023-01-23T01:04:00.476Z,98054.34
2023-01-23T01:06:30.210Z,98057.59
2023-01-23T01:08:58.868Z,98056.84
2023-01-23T01:11:26.652Z,98058.19
2023-01-23T01:13:54.359Z,98067.63
2023-01-23T01:16:24.345Z,98068.97
2023-01-23T01:18:52.148Z,98070.59
2023-01-23T01:21:20.473Z,98069.13
2023-01-23T01:23:48.156Z,98068.75
2023-01-23T01:26:15.971Z,98076.28
2023-01-23T01:28:43.783Z,98080.00
2023-01-23T01:31:13.742Z,98082.00
2023-01-23T01:33:41.867Z,98080.75
2023-01-23T01:36:10.786Z,98081.81
2023-01-23T01:38:39.063Z,98085.38
2023-01-23T01:41:07.126Z,98081.19
2023-01-23T01:43:35.203Z,98076.41
2023-01-23T01:46:25.247Z,98082.97
2023-01-23T01:49:01.910Z,98089.34
2023-01-23T01:51:47.557Z,98095.47
2023-01-23T01:54:20.185Z,98090.72
2023-01-23T01:57:34.047Z,98092.72
2023-01-23T02:00:12.214Z,98087.50
2023-01-23T02:02:54.637Z,98099.47
2023-01-23T02:05:24.795Z,98103.94
2023-01-23T02:08:26.141Z,98086.22
2023-01-23T02:10:53.931Z,98086.91
2023-01-23T02:13:25.930Z,98093.59
2023-01-23T02:15:53.914Z,98105.91
2023-01-23T02:18:21.633Z,98101.50
2023-01-23T02:20:52.683Z,98110.84
2023-01-23T02:23:35.534Z,98101.41
2023-01-23T02:26:08.438Z,98092.28
2023-01-23T02:28:38.609Z,98089.13
2023-01-23T02:31:06.725Z,98100.19
2023-01-23T02:33:35.323Z,98091.53
2023-01-23T02:36:05.519Z,98093.47
2023-01-23T02:38:44.702Z,98096.63
2023-01-23T02:41:14.616Z,98084.44
2023-01-23T02:43:43.084Z,98086.91
2023-01-23T02:46:12.495Z,98086.09
2023-01-23T02:48:40.434Z,98087.63
2023-01-23T02:51:08.299Z,98098.75
2023-01-23T02:53:36.182Z,98109.63
2023-01-23T02:56:04.100Z,98108.09
2023-01-23T02:58:50.490Z,98105.38
2023-01-23T03:01:18.302Z,98102.34
2023-01-23T03:03:45.987Z,98110.69
2023-01-23T03:06:13.738Z,98096.53
2023-01-23T03:08:47.483Z,98100.53
2023-01-23T03:11:17.256Z,98107.16
2023-01-23T03:13:46.302Z,98093.44
2023-01-23T03:16:14.539Z,98097.16
2023-01-23T03:18:53.473Z,98099.34
2023-01-23T03:21:21.631Z,98096.81
2023-01-23T03:23:49.406Z,98092.03
2023-01-23T03:26:18.697Z,98101.88
2023-01-23T03:29:06.806Z,98107.59
2023-01-23T03:31:34.624Z,98100.44
2023-01-23T03:34:02.424Z,98104.78
2023-01-23T03:36:37.367Z,98112.41
2023-01-23T03:39:24.716Z,98111.00
2023-01-23T03:41:53.485Z,98110.25
2023-01-23T03:44:22.509Z,98102.16
2023-01-23T03:46:51.270Z,98096.16
2023-01-23T03:49:19.268Z,98105.06
2023-01-23T03:51:57.342Z,98098.44
2023-01-23T03:54:25.231Z,98095.66
2023-01-23T03:56:54.391Z,98103.88
2023-01-23T03:59:50.919Z,98099.63
2023-01-23T04:02:21.211Z,98110.16
2023-01-23T04:04:48.891Z,98107.66
2023-01-23T04:07:16.617Z,98111.81
2023-01-23T04:09:45.581Z,98105.78
2023-01-23T04:12:13.374Z,98119.38
2023-01-23T04:14:44.773Z,98118.41
2023-01-23T04:17:14.811Z,98120.34
2023-01-23T04:19:42.543Z,98115.63
2023-01-23T04:22:10.479Z,98124.16
2023-01-23T04:24:44.410Z,98118.13
2023-01-23T04:27:12.741Z,98118.00
2023-01-23T04:29:40.856Z,98122.91
2023-01-23T04:32:10.170Z,98125.97
2023-01-23T04:34:43.996Z,98126.72
2023-01-23T04:37:12.507Z,98131.66
2023-01-23T04:39:40.982Z,98128.03
2023-01-23T04:42:08.973Z,98137.16
2023-01-23T04:44:59.564Z,98132.94
2023-01-23T04:47:47.277Z,98134.47
2023-01-23T04:50:17.191Z,98138.19
2023-01-23T04:52:47.131Z,98140.59
2023-01-23T04:55:14.997Z,98138.50
2023-01-23T04:57:44.569Z,98140.22
2023-01-23T05:00:20.220Z,98140.66
2023-01-23T05:02:48.938Z,98146.09
2023-01-23T05:05:18.096Z,98151.13
2023-01-23T05:07:45.946Z,98155.84
2023-01-23T05:10:17.621Z,98163.19
2023-01-23T05:12:45.588Z,98155.03
2023-01-23T05:15:14.116Z,98157.72
2023-01-23T05:17:43.505Z,98161.31
2023-01-23T05:20:12.422Z,98152.53
2023-01-23T05:22:52.326Z,98158.13
2023-01-23T05:25:23.284Z,98168.84
2023-01-23T05:27:51.448Z,98176.66
2023-01-23T05:30:21.609Z,98182.31
2023-01-23T05:32:52.245Z,98169.56
2023-01-23T05:35:22.225Z,98174.97
2023-01-23T05:37:51.559Z,98183.75
2023-01-23T05:40:23.069Z,98185.28
2023-01-23T05:43:25.778Z,98178.03
2023-01-23T05:46:01.486Z,98189.16
2023-01-23T05:48:38.913Z,98179.81
2023-01-23T05:51:10.644Z,98194.03
2023-01-23T05:53:38.865Z,98186.19
2023-01-23T05:56:09.733Z,98191.13
2023-01-23T05:59:05.383Z,98194.03
2023-01-23T06:01:41.061Z,98199.72
2023-01-23T06:04:08.794Z,98200.41
2023-01-23T06:06:56.764Z,98203.03
2023-01-23T06:09:25.010Z,98208.50
2023-01-23T06:11:52.803Z,98217.72
2023-01-23T06:14:21.854Z,98219.59
2023-01-23T06:16:49.676Z,98219.00
2023-01-23T06:19:17.980Z,98219.69
2023-01-23T06:21:46.258Z,98234.06
2023-01-23T06:24:14.243Z,98235.25
2023-01-23T06:26:42.040Z,98234.66
2023-01-23T06:29:09.757Z,98232.34
2023-01-23T06:31:37.568Z,98227.66
2023-01-23T06:34:05.376Z,98236.44
2023-01-23T06:36:40.552Z,98240.72
2023-01-23T06:39:08.642Z,98252.75
2023-01-23T06:41:42.208Z,98241.59
2023-01-23T06:44:12.586Z,98241.09
2023-01-23T06:46:40.954Z,98241.63
2023-01-23T06:49:09.893Z,98245.97
2023-01-23T06:51:38.470Z,98245.28
2023-01-23T06:54:09.506Z,98251.13
2023-01-23T06:56:37.578Z,98252.41
2023-01-23T06:59:07.682Z,98248.34
2023-01-23T07:01:36.146Z,98249.13
2023-01-23T07:04:23.176Z,98241.53
2023-01-23T07:06:52.280Z,98248.03
2023-01-23T07:09:21.103Z,98248.78
2023-01-23T07:12:01.376Z,98254.47
2023-01-23T07:14:32.149Z,98268.38
2023-01-23T07:17:00.190Z,98263.44
2023-01-23T07:19:28.054Z,98261.22
2023-01-23T07:22:01.206Z,98265.19
2023-01-23T07:24:31.765Z,98275.63
2023-01-23T07:26:59.558Z,98274.28
2023-01-23T07:29:27.388Z,98264.47
2023-01-23T07:31:57.985Z,98276.44
2023-01-23T07:34:25.788Z,98268.69
2023-01-23T07:36:53.451Z,98271.59
2023-01-23T07:39:21.187Z,98278.25
2023-01-23T07:41:48.945Z,98283.72
2023-01-23T07:44:18.705Z,98280.16
2023-01-23T07:46:46.649Z,98268.00
2023-01-23T07:49:14.464Z,98265.00
2023-01-23T07:51:42.201Z,98278.31
2023-01-23T07:54:09.959Z,98268.91
2023-01-23T07:56:37.695Z,98268.91
2023-01-23T07:59:05.353Z,98281.94
2023-01-23T08:01:33.146Z,98268.47
2023-01-23T08:04:00.838Z,98275.91
2023-01-23T08:06:28.576Z,98282.47
2023-01-23T08:08:56.261Z,98279.03
2023-01-23T08:11:26.541Z,98284.94
2023-01-23T08:13:54.381Z,98286.09
2023-01-23T08:16:22.170Z,98295.50
2023-01-23T08:18:49.954Z,98296.38
2023-01-23T08:21:17.742Z,98308.00
2023-01-23T08:23:46.497Z,98314.72
2023-01-23T08:26:15.063Z,98314.63
2023-01-23T08:28:43.304Z,98314.72
2023-01-23T08:31:11.445Z,98306.47
2023-01-23T08:33:39.626Z,98306.25
2023-01-23T08:36:10.164Z,98300.97
2023-01-23T08:38:39.016Z,98296.38
2023-01-23T08:41:06.878Z,98292.81
2023-01-23T08:43:34.692Z,98291.88
2023-01-23T08:46:02.474Z,98290.78
2023-01-23T08:48:30.260Z,98294.16
2023-01-23T08:51:06.133Z,98300.38
2023-01-23T08:53:34.023Z,98302.94
2023-01-23T08:56:16.675Z,98305.28
2023-01-23T08:58:45.382Z,98311.44
2023-01-23T09:01:14.117Z,98296.34
2023-01-23T09:03:41.843Z,98303.66
2023-01-23T09:06:13.170Z,98296.16
2023-01-23T09:08:40.879Z,98299.94
2023-01-23T09:11:09.329Z,98293.38
2023-01-23T09:13:37.130Z,98300.97
2023-01-23T09:16:05.654Z,98300.47
2023-01-23T09:18:33.347Z,98308.16
2023-01-23T09:21:06.692Z,98308.88
2023-01-23T09:23:36.482Z,98307.94
2023-01-23T09:26:05.707Z,98311.88
2023-01-23T09:28:33.450Z,98311.22
2023-01-23T09:31:07.824Z,98305.41
2023-01-23T09:33:35.719Z,98298.44
2023-01-23T09:36:04.314Z,98298.13
2023-01-23T09:38:34.030Z,98296.06
2023-01-23T09:41:11.618Z,98290.69
2023-01-23T09:43:47.075Z,98295.13
2023-01-23T09:46:25.033Z,98293.31
2023-01-23T09:49:03.368Z,98291.53
2023-01-23T09:51:37.620Z,98280.94
2023-01-23T09:54:16.286Z,98294.75
2023-01-23T09:56:45.199Z,98289.56
2023-01-23T09:59:29.627Z,98277.47
2023-01-23T10:01:57.415Z,98286.34
2023-01-23T10:04:25.088Z,98285.78
2023-01-23T10:07:20.351Z,98298.13
2023-01-23T10:10:07.145Z,98283.44
2023-01-23T10:12:40.142Z,98288.22
2023-01-23T10:15:34.023Z,98291.78
2023-01-23T10:18:40.040Z,98292.66
2023-01-23T10:21:10.292Z,98277.59
2023-01-23T10:23:57.876Z,98278.84
2023-01-23T10:26:30.755Z,98291.72
2023-01-23T10:29:03.769Z,98279.97
2023-01-23T10:31:47.573Z,98266.94
2023-01-23T10:34:22.179Z,98276.09
2023-01-23T10:37:25.638Z,98275.50
2023-01-23T10:40:07.909Z,98270.31
2023-01-23T10:42:35.635Z,98258.41
2023-01-23T10:45:03.522Z,98255.78
2023-01-23T10:47:35.632Z,98255.69
2023-01-23T10:50:05.249Z,98260.56
2023-01-23T10:52:38.141Z,98258.19
2023-01-23T10:55:36.265Z,98257.22
2023-01-23T10:58:04.068Z,98254.66
2023-01-23T11:00:44.905Z,98253.53
2023-01-23T11:03:21.616Z,98250.53
2023-01-23T11:05:53.434Z,98259.84
2023-01-23T11:08:24.055Z,98268.47
2023-01-23T11:10:51.806Z,98266.84
2023-01-23T11:13:29.971Z,98254.84
2023-01-23T11:15:57.756Z,98256.69
2023-01-23T11:18:31.091Z,98258.50
2023-01-23T11:20:58.853Z,98261.56
2023-01-23T11:23:26.657Z,98252.22
2023-01-23T11:25:54.873Z,98256.97
2023-01-23T11:28:30.972Z,98265.44
2023-01-23T11:31:11.920Z,98263.03
2023-01-23T11:33:52.576Z,98264.97
2023-01-23T11:36:20.285Z,98269.84
2023-01-23T11:38:55.634Z,98267.38
2023-01-23T11:41:29.587Z,98265.97
2023-01-23T11:43:57.388Z,98267.16
2023-01-23T11:46:37.145Z,98263.31
2023-01-23T11:49:04.835Z,98268.94
2023-01-23T11:51:52.001Z,98273.31
2023-01-23T11:54:47.669Z,98269.09
2023-01-23T11:57:29.189Z,98265.75
2023-01-23T12:00:24.364Z,98276.91
2023-01-23T12:03:00.352Z,98269.53
2023-01-23T12:06:18.766Z,98277.69
2023-01-23T12:09:05.797Z,98273.94
2023-01-23T12:11:48.904Z,98262.94
2023-01-23T12:14:36.280Z,98264.53
2023-01-23T12:17:13.260Z,98276.34
2023-01-23T12:20:12.312Z,98281.22
2023-01-23T12:22:43.830Z,98274.09
2023-01-23T12:25:31.629Z,98284.06
2023-01-23T12:28:18.479Z,98272.50
2023-01-23T12:30:51.877Z,98288.34
2023-01-23T12:33:43.792Z,98281.19
2023-01-23T12:36:37.274Z,98281.81
2023-01-23T12:39:35.660Z,98288.31
2023-01-23T12:42:04.597Z,98288.00
2023-01-23T12:44:51.717Z,98291.84
2023-01-23T12:47:33.212Z,98295.72
2023-01-23T12:50:42.652Z,98294.94
2023-01-23T12:53:12.691Z,98305.50
2023-01-23T12:56:04.324Z,98290.44
2023-01-23T12:58:36.564Z,98290.09
2023-01-23T13:01:23.240Z,98287.41
2023-01-23T13:03:53.590Z,98289.81
2023-01-23T13:06:28.804Z,98291.59
2023-01-23T13:09:17.394Z,98290.94
2023-01-23T13:12:03.200Z,98274.19
2023-01-23T13:14:36.855Z,98280.53
2023-01-23T13:17:30.755Z,98282.81
2023-01-23T13:20:39.415Z,98283.09
2023-01-23T13:23:28.557Z,98293.22
2023-01-23T13:26:23.167Z,98298.44
2023-01-23T13:28:57.706Z,98296.28
2023-01-23T13:31:40.413Z,98290.31
2023-01-23T13:34:17.655Z,98298.47
2023-01-23T13:36:49.234Z,98296.50
2023-01-23T13:39:17.042Z,98299.69
2023-01-23T13:41:45.644Z,98300.09
2023-01-23T13:44:18.020Z,98305.75
2023-01-23T14:21:42.042Z,98315.13
2023-01-23T14:24:23.278Z,98319.06
2023-01-23T14:26:52.979Z,98323.56
2023-01-23T14:29:24.845Z,98332.81
2023-01-23T14:31:52.739Z,98334.06
2023-01-23T14:34:22.373Z,98327.16
2023-01-23T14:37:02.651Z,98327.41
2023-01-23T14:39:31.597Z,98329.75
2023-01-23T14:42:02.332Z,98330.47
2023-01-23T14:44:46.094Z,98331.78
2023-01-23T14:47:39.267Z,98326.09
2023-01-23T14:50:18.339Z,98331.34
2023-01-23T14:52:46.181Z,98334.00
2023-01-23T14:55:29.659Z,98332.09
2023-01-23T14:57:58.653Z,98342.00
2023-01-23T15:00:26.638Z,98349.16
2023-01-23T15:02:54.550Z,98343.97
2023-01-23T15:05:27.403Z,98349.91
2023-01-23T15:07:55.921Z,98347.22
2023-01-23T15:10:25.430Z,98350.41
2023-01-23T15:13:13.404Z,98354.44
2023-01-23T15:15:45.519Z,98362.34
2023-01-23T15:18:33.556Z,98358.97
2023-01-23T15:21:05.336Z,98368.38
2023-01-23T15:23:39.590Z,98368.97
2023-01-23T15:26:19.603Z,98372.22
2023-01-23T15:28:55.019Z,98375.56
2023-01-23T15:31:30.659Z,98378.53
2023-01-23T15:34:16.790Z,98385.38
2023-01-23T15:36:47.702Z,98383.50
2023-01-23T15:39:54.434Z,98375.03
2023-01-23T15:42:26.503Z,98374.22
2023-01-23T15:44:54.487Z,98377.47
2023-01-23T15:47:22.176Z,98375.22
2023-01-23T15:49:49.938Z,98380.72
2023-01-23T15:52:28.646Z,98390.16
2023-01-23T15:55:00.832Z,98388.53
2023-01-23T15:57:28.714Z,98391.94
2023-01-23T15:59:56.422Z,98387.81
2023-01-23T16:02:31.113Z,98395.38
2023-01-23T16:05:01.143Z,98394.00
2023-01-23T16:07:34.614Z,98392.16
2023-01-23T16:10:16.567Z,98392.75
2023-01-23T16:12:46.763Z,98386.81
2023-01-23T16:15:21.765Z,98389.28
2023-01-23T16:17:50.038Z,98400.81
2023-01-23T16:20:22.776Z,98398.09
2023-01-23T16:22:54.689Z,98404.34
2023-01-23T16:25:43.672Z,98402.13
2023-01-23T16:28:16.249Z,98399.81
2023-01-23T16:30:44.249Z,98416.19
2023-01-23T16:33:12.118Z,98415.00
2023-01-23T16:35:39.871Z,98411.25
2023-01-23T16:38:07.662Z,98419.59
2023-01-23T16:40:35.370Z,98416.66
2023-01-23T16:43:03.350Z,98417.47
2023-01-23T16:45:31.747Z,98425.66
2023-01-23T16:47:59.563Z,98423.22
2023-01-23T16:50:51.454Z,98426.28
2023-01-23T16:53:26.264Z,98431.56
2023-01-23T16:55:54.735Z,98433.16
2023-01-23T16:58:27.188Z,98430.59
2023-01-23T17:01:03.665Z,98430.94
2023-01-23T17:03:33.853Z,98439.72
2023-01-23T17:06:01.601Z,98437.16
2023-01-23T17:08:29.339Z,98442.31
2023-01-23T17:10:58.623Z,98444.06
2023-01-23T17:13:26.350Z,98439.38
2023-01-23T17:15:55.181Z,98442.94
2023-01-23T17:18:25.112Z,98443.75
2023-01-23T17:20:56.092Z,98440.78
2023-01-23T17:23:24.144Z,98426.06
2023-01-23T17:26:00.317Z,98433.50
2023-01-23T17:28:29.109Z,98437.06
2023-01-23T17:30:57.904Z,98444.56
2023-01-23T17:33:27.600Z,98445.75
2023-01-23T17:35:56.129Z,98457.00
2023-01-23T17:38:25.573Z,98451.34
2023-01-23T17:40:53.622Z,98465.84
2023-01-23T17:43:21.505Z,98464.91
2023-01-23T17:45:50.488Z,98453.44
2023-01-23T17:48:24.078Z,98462.47
2023-01-23T17:50:51.798Z,98466.94
2023-01-23T17:53:19.574Z,98461.50
2023-01-23T17:55:51.393Z,98461.56
2023-01-23T17:58:19.283Z,98467.50
2023-01-23T18:00:49.091Z,98469.34
2023-01-23T18:03:18.369Z,98471.59
2023-01-23T18:05:46.060Z,98478.16
2023-01-23T18:08:14.675Z,98475.59
2023-01-23T18:10:44.215Z,98462.28
2023-01-23T18:13:25.546Z,98471.72
2023-01-23T18:16:04.974Z,98478.13
2023-01-23T18:18:37.205Z,98470.09
2023-01-23T18:21:06.021Z,98482.78
2023-01-23T18:23:37.201Z,98472.94
2023-01-23T18:26:23.445Z,98470.06
2023-01-23T18:28:56.784Z,98493.97
2023-01-23T18:32:05.747Z,98490.25
2023-01-23T18:35:11.384Z,98486.44
2023-01-23T18:37:45.300Z,98492.91
2023-01-23T18:40:29.381Z,98500.84
2023-01-23T18:43:00.148Z,98491.09
2023-01-23T18:45:29.608Z,98515.72
2023-01-23T18:47:57.780Z,98506.13
2023-01-23T18:50:27.079Z,98510.72
2023-01-23T18:53:22.173Z,98521.28
2023-01-23T18:56:29.632Z,98524.63
2023-01-23T18:59:15.797Z,98522.88
2023-01-23T19:01:54.147Z,98526.34
2023-01-23T19:04:38.261Z,98539.25
2023-01-23T19:07:18.423Z,98535.66
2023-01-23T19:09:47.003Z,98527.97
2023-01-23T19:12:36.455Z,98531.28
2023-01-23T19:15:25.346Z,98533.53
2023-01-23T19:18:40.282Z,98530.22
2023-01-23T19:21:08.347Z,98532.06
2023-01-23T19:23:45.250Z,98523.06
2023-01-23T19:26:16.610Z,98532.53
2023-01-23T19:28:44.657Z,98535.72
2023-01-23T19:31:21.837Z,98532.53
2023-01-23T19:33:49.743Z,98534.13
2023-01-23T19:36:17.481Z,98528.22
2023-01-23T19:38:45.254Z,98533.50
2023-01-23T19:41:23.625Z,98534.41
2023-01-23T19:43:53.100Z,98532.06
2023-01-23T19:46:22.090Z,98525.00
2023-01-23T19:48:50.141Z,98536.06
2023-01-23T19:51:18.600Z,98537.03
2023-01-23T19:53:46.799Z,98536.69
2023-01-23T19:56:16.243Z,98537.97
2023-01-23T19:58:44.052Z,98539.72
2023-01-23T20:01:48.364Z,98548.88
2023-01-23T20:04:17.981Z,98544.88
2023-01-23T20:06:45.805Z,98540.38
2023-01-23T20:09:17.588Z,98551.09
2023-01-23T20:11:45.427Z,98547.19
2023-01-23T20:14:13.181Z,98547.72
2023-01-23T20:16:42.995Z,98553.00
2023-01-23T20:19:13.465Z,98552.13
2023-01-23T20:21:41.319Z,98556.13
2023-01-23T20:24:09.073Z,98567.03
2023-01-23T20:26:36.978Z,98568.69
2023-01-23T20:29:04.863Z,98585.00
2023-01-23T20:31:32.816Z,98583.22
2023-01-23T20:34:00.855Z,98587.59
2023-01-23T20:36:28.768Z,98584.88
2023-01-23T20:38:56.594Z,98588.28
2023-01-23T20:41:24.367Z,98589.28
2023-01-23T20:43:52.031Z,98582.31
2023-01-23T20:46:19.875Z,98582.09
2023-01-23T20:48:47.643Z,98593.78
2023-01-23T20:51:16.453Z,98604.63
2023-01-23T20:53:44.299Z,98598.44
2023-01-23T20:56:13.847Z,98597.69
2023-01-23T20:59:07.345Z,98599.44
2023-01-23T21:01:55.841Z,98616.41
2023-01-23T21:04:25.072Z,98613.97
2023-01-23T21:06:52.899Z,98618.75
2023-01-23T21:09:20.683Z,98631.41
2023-01-23T21:11:49.806Z,98622.38
2023-01-23T21:14:17.696Z,98618.75
2023-01-23T21:16:45.663Z,98619.53
2023-01-23T21:19:13.624Z,98630.16
2023-01-23T21:21:42.001Z,98623.13
2023-01-23T21:24:09.851Z,98621.22
2023-01-23T21:26:37.700Z,98627.44
2023-01-23T21:29:05.542Z,98627.41
2023-01-23T21:31:34.932Z,98632.75
2023-01-23T21:34:04.053Z,98634.31
2023-01-23T21:36:31.869Z,98629.53
2023-01-23T21:38:59.776Z,98632.59
2023-01-23T21:41:27.528Z,98632.84
2023-01-23T21:43:55.251Z,98630.16
2023-01-23T21:46:23.109Z,98621.16
2023-01-23T21:48:52.260Z,98629.63
2023-01-23T21:51:21.183Z,98634.38
2023-01-23T21:53:49.719Z,98633.50
2023-01-23T21:56:18.861Z,98626.31
2023-01-23T21:58:47.238Z,98633.94
2023-01-23T22:01:42.351Z,98631.72
2023-01-23T22:04:12.229Z,98629.03
2023-01-23T22:06:41.963Z,98621.25
2023-01-23T22:09:09.952Z,98621.69
2023-01-23T22:11:37.748Z,98629.19
2023-01-23T22:14:05.547Z,98627.91
2023-01-23T22:16:47.459Z,98619.44
2023-01-23T22:19:17.307Z,98624.72
2023-01-23T22:21:46.679Z,98618.09
2023-01-23T22:24:14.942Z,98621.22
2023-01-23T22:26:43.246Z,98624.00
2023-01-23T22:29:12.576Z,98623.75
2023-01-23T22:31:40.515Z,98625.69
2023-01-23T22:34:08.261Z,98623.13
2023-01-23T22:36:36.034Z,98621.84
2023-01-23T22:39:04.016Z,98619.28
2023-01-23T22:41:31.963Z,98618.97
2023-01-23T22:43:59.637Z,98633.34
2023-01-23T22:46:27.777Z,98635.81
2023-01-23T22:48:55.589Z,98630.59
2023-01-23T22:51:25.037Z,98626.19
2023-01-23T22:53:53.675Z,98624.88
2023-01-23T22:56:21.645Z,98621.34
2023-01-23T22:58:50.369Z,98621.41
2023-01-23T23:01:18.475Z,98624.97
2023-01-23T23:03:46.318Z,98629.84
2023-01-23T23:06:14.786Z,98633.56
2023-01-23T23:08:43.957Z,98627.97
2023-01-23T23:11:17.412Z,98623.81
2023-01-23T23:13:45.287Z,98624.31
2023-01-23T23:16:23.671Z,98638.34
2023-01-23T23:18:53.049Z,98632.91
2023-01-23T23:21:22.614Z,98638.81
2023-01-23T23:23:50.467Z,98639.63
2023-01-23T23:26:18.245Z,98639.72
2023-01-23T23:28:45.959Z,98640.03
2023-01-23T23:31:13.697Z,98641.09
2023-01-23T23:33:41.409Z,98641.19
2023-01-23T23:36:09.268Z,98639.25
2023-01-23T23:38:37.209Z,98648.56
2023-01-23T23:41:07.230Z,98640.03
2023-01-23T23:43:34.959Z,98651.72
2023-01-23T23:46:04.465Z,98663.31
2023-01-23T23:48:32.780Z,98658.50
2023-01-23T23:51:01.122Z,98668.31
2023-01-23T23:53:29.235Z,98659.69
2023-01-23T23:55:57.112Z,98659.19
2023-01-23T23:58:24.941Z,98665.16
